createdAt,value
2023-02-18T00:02:06.491Z,70.11
2023-02-18T00:05:08.241Z,70.17
2023-02-18T00:08:09.811Z,70.33
2023-02-18T00:11:11.992Z,70.36
2023-02-18T00:14:15.212Z,70.46
2023-02-18T00:17:16.725Z,70.42
2023-02-18T00:20:18.445Z,70.57
2023-02-18T00:23:19.948Z,70.74
2023-02-18T00:26:21.516Z,70.81
2023-02-18T00:29:23.178Z,70.82
2023-02-18T00:32:24.762Z,70.77
2023-02-18T00:35:26.370Z,71.01
2023-02-18T00:38:27.962Z,71.13
2023-02-18T00:41:29.946Z,71.17
2023-02-18T00:44:32.046Z,71.12
2023-02-18T00:47:33.589Z,71.07
2023-02-18T00:50:35.614Z,71.11
2023-02-18T00:53:37.405Z,71.14
2023-02-18T00:56:55.322Z,71.09
2023-02-18T00:59:56.874Z,71.26
2023-02-18T01:02:58.409Z,71.16
2023-02-18T01:06:00.740Z,71.27
2023-02-18T01:09:02.280Z,71.32
2023-02-18T01:12:04.924Z,71.30
2023-02-18T01:15:08.445Z,71.14
2023-02-18T01:18:10.571Z,71.10
2023-02-18T01:21:12.305Z,71.13
2023-02-18T01:24:13.872Z,71.09
2023-02-18T01:27:17.364Z,71.23
2023-02-18T01:30:20.860Z,71.40
2023-02-18T01:33:22.872Z,71.35
2023-02-18T01:36:24.447Z,71.66
2023-02-18T01:39:29.573Z,71.73
2023-02-18T01:42:31.187Z,71.99
2023-02-18T01:45:37.225Z,72.08
2023-02-18T01:48:42.658Z,72.08
2023-02-18T01:51:49.157Z,72.20
2023-02-18T01:54:55.491Z,72.22
2023-02-18T01:57:57.141Z,72.32
2023-02-18T02:00:58.767Z,72.26
2023-02-18T02:04:00.521Z,72.25
2023-02-18T02:07:02.250Z,72.14
2023-02-18T02:10:04.508Z,72.35
2023-02-18T02:13:27.412Z,72.45
2023-02-18T02:17:03.818Z,72.53
2023-02-18T02:20:24.043Z,72.55
2023-02-18T02:24:02.788Z,72.52
2023-02-18T02:27:57.293Z,72.44
2023-02-18T02:31:08.497Z,72.36
2023-02-18T02:34:43.290Z,72.36
2023-02-18T02:38:08.106Z,72.30
2023-02-18T02:41:28.319Z,72.21
2023-02-18T02:44:48.608Z,72.13
2023-02-18T02:48:05.409Z,72.05
2023-02-18T02:51:35.903Z,72.08
2023-02-18T02:54:37.680Z,72.21
2023-02-18T02:57:50.087Z,72.24
2023-02-18T03:01:14.227Z,72.39
2023-02-18T03:04:24.964Z,72.46
2023-02-18T03:07:54.775Z,72.52
2023-02-18T03:11:09.495Z,72.39
2023-02-18T03:14:17.448Z,72.37
2023-02-18T03:17:27.629Z,72.44
2023-02-18T03:20:35.836Z,72.56
2023-02-18T03:23:53.091Z,72.67
2023-02-18T03:26:59.911Z,72.87
2023-02-18T03:30:07.279Z,72.90
2023-02-18T03:33:11.812Z,72.98
2023-02-18T03:36:13.616Z,73.15
2023-02-18T03:39:17.371Z,73.17
2023-02-18T03:42:19.456Z,73.15
2023-02-18T03:45:21.108Z,73.20
2023-02-18T03:48:23.040Z,73.09
2023-02-18T03:51:27.009Z,73.16
2023-02-18T03:54:28.688Z,73.18
2023-02-18T03:57:30.415Z,73.19
2023-02-18T04:00:32.060Z,73.30
2023-02-18T04:03:33.672Z,73.46
2023-02-18T04:06:35.384Z,73.48
2023-02-18T04:09:36.999Z,73.51
2023-02-18T04:12:38.515Z,73.68
2023-02-18T04:15:40.130Z,73.75
2023-02-18T04:18:41.677Z,73.73
2023-02-18T04:21:43.382Z,73.74
2023-02-18T04:24:44.917Z,73.87
2023-02-18T04:27:46.564Z,73.84
2023-02-18T04:30:48.627Z,74.02
2023-02-18T04:33:50.240Z,74.15
2023-02-18T04:36:51.863Z,74.16
2023-02-18T04:39:53.428Z,74.23
2023-02-18T04:42:54.985Z,74.31
2023-02-18T04:45:56.613Z,74.44
2023-02-18T04:48:58.195Z,74.62
2023-02-18T04:51:59.882Z,74.76
2023-02-18T04:55:01.414Z,74.79
2023-02-18T04:58:03.021Z,74.95
2023-02-18T05:01:05.137Z,74.96
2023-02-18T05:04:06.780Z,74.94
2023-02-18T05:07:08.332Z,74.89
2023-02-18T05:10:12.009Z,74.86
2023-02-18T05:13:13.565Z,74.80
2023-02-18T05:16:15.233Z,74.63
2023-02-18T05:19:17.195Z,74.76
2023-02-18T05:22:18.812Z,74.67
2023-02-18T05:25:20.389Z,74.76
2023-02-18T05:28:21.949Z,74.92
2023-02-18T05:31:23.951Z,74.97
2023-02-18T05:34:25.679Z,75.11
2023-02-18T05:37:27.290Z,75.14
2023-02-18T05:40:28.790Z,75.13
2023-02-18T05:43:30.568Z,75.22
2023-02-18T05:46:32.227Z,75.40
2023-02-18T05:49:35.695Z,75.44
2023-02-18T05:52:37.551Z,75.36
2023-02-18T05:55:39.401Z,75.30
2023-02-18T05:58:41.001Z,75.29
2023-02-18T06:01:42.619Z,75.12
2023-02-18T06:04:44.156Z,75.12
2023-02-18T06:07:45.717Z,75.15
2023-02-18T06:10:47.344Z,75.28
2023-02-18T06:13:48.915Z,75.29
2023-02-18T06:16:50.581Z,75.43
2023-02-18T06:19:52.201Z,75.28
2023-02-18T06:22:53.797Z,75.57
2023-02-18T06:25:55.431Z,75.57
2023-02-18T06:28:57.059Z,75.41
2023-02-18T06:31:59.412Z,75.46
2023-02-18T06:35:01.131Z,75.38
2023-02-18T06:38:02.758Z,75.30
2023-02-18T06:41:04.708Z,75.37
2023-02-18T06:44:06.325Z,75.28
2023-02-18T06:47:07.885Z,75.43
2023-02-18T06:50:09.795Z,75.48
2023-02-18T06:53:12.073Z,75.59
2023-02-18T06:56:13.620Z,75.66
2023-02-18T06:59:15.196Z,75.67
2023-02-18T07:02:17.174Z,75.70
2023-02-18T07:05:18.858Z,75.69
2023-02-18T07:08:20.594Z,75.69
2023-02-18T07:11:22.140Z,75.74
2023-02-18T07:14:24.818Z,75.76
2023-02-18T07:17:26.455Z,75.79
2023-02-18T07:20:28.738Z,75.86
2023-02-18T07:23:30.392Z,75.72
2023-02-18T07:26:32.104Z,75.74
2023-02-18T07:29:33.604Z,75.74
2023-02-18T07:32:35.326Z,75.76
2023-02-18T07:35:36.976Z,75.86
2023-02-18T07:38:38.615Z,75.89
2023-02-18T07:41:40.201Z,75.98
2023-02-18T07:44:48.419Z,76.06
2023-02-18T07:47:49.940Z,76.18
2023-02-18T07:50:51.513Z,76.18
2023-02-18T07:53:53.081Z,76.16
2023-02-18T07:56:57.657Z,76.26
2023-02-18T07:59:59.086Z,76.29
2023-02-18T08:03:00.589Z,76.39
2023-02-18T08:06:03.080Z,76.25
2023-02-18T08:09:05.091Z,76.03
2023-02-18T08:12:07.009Z,75.95
2023-02-18T08:15:09.078Z,75.87
2023-02-18T08:18:18.252Z,75.91
2023-02-18T08:21:21.344Z,75.96
2023-02-18T08:24:22.920Z,75.98
2023-02-18T08:27:24.772Z,76.08
2023-02-18T08:30:27.221Z,76.18
2023-02-18T08:33:29.400Z,76.23
2023-02-18T08:36:31.079Z,76.25
2023-02-18T08:39:39.542Z,76.22
2023-02-18T08:42:41.516Z,76.06
2023-02-18T08:45:44.061Z,76.10
2023-02-18T08:48:45.725Z,76.01
2023-02-18T08:51:48.179Z,76.04
2023-02-18T08:54:49.917Z,76.03
2023-02-18T08:57:51.506Z,75.87
2023-02-18T09:00:53.089Z,76.11
2023-02-18T09:03:54.769Z,76.16
2023-02-18T09:06:56.494Z,76.16
2023-02-18T09:09:58.013Z,76.21
2023-02-18T09:12:59.533Z,76.11
2023-02-18T09:16:04.405Z,76.09
2023-02-18T09:19:06.422Z,76.19
2023-02-18T09:22:07.953Z,76.18
2023-02-18T09:25:09.954Z,76.16
2023-02-18T09:28:11.470Z,76.27
2023-02-18T09:31:16.558Z,76.23
2023-02-18T09:34:18.380Z,76.17
2023-02-18T09:37:20.117Z,75.98
2023-02-18T09:40:27.882Z,75.98
2023-02-18T09:43:33.785Z,75.92
2023-02-18T09:46:48.884Z,76.01
2023-02-18T09:50:20.115Z,75.77
2023-02-18T09:53:23.040Z,75.70
2023-02-18T09:56:30.970Z,75.65
2023-02-18T09:59:32.726Z,75.43
2023-02-18T10:02:34.532Z,75.37
2023-02-18T10:05:37.073Z,75.58
2023-02-18T10:08:43.765Z,75.61
2023-02-18T10:11:49.598Z,75.65
2023-02-18T10:14:53.398Z,75.59
2023-02-18T10:17:57.416Z,75.53
2023-02-18T10:21:32.997Z,75.33
2023-02-18T10:24:43.741Z,75.24
2023-02-18T10:27:45.170Z,75.07
2023-02-18T10:31:01.749Z,74.93
2023-02-18T10:34:22.094Z,74.91
2023-02-18T10:37:27.948Z,75.20
2023-02-18T10:40:32.892Z,75.41
2023-02-18T10:43:53.142Z,75.46
2023-02-18T10:47:03.910Z,75.20
2023-02-18T10:50:05.383Z,75.13
2023-02-18T10:53:31.156Z,74.93
2023-02-18T10:56:35.250Z,74.93
2023-02-18T10:59:36.908Z,74.92
2023-02-18T11:02:39.570Z,74.84
2023-02-18T11:05:41.278Z,74.84
2023-02-18T11:08:44.128Z,74.41
2023-02-18T11:11:50.711Z,74.45
2023-02-18T11:15:14.051Z,74.45
2023-02-18T11:18:37.651Z,74.39
2023-02-18T11:21:39.255Z,74.46
2023-02-18T11:24:41.635Z,74.33
2023-02-18T11:27:50.433Z,74.30
2023-02-18T11:30:56.953Z,74.20
2023-02-18T11:34:01.243Z,74.18
2023-02-18T11:37:29.158Z,74.17
2023-02-18T11:40:36.274Z,74.20
2023-02-18T11:43:42.108Z,74.34
2023-02-18T11:47:17.734Z,74.16
2023-02-18T11:50:22.620Z,74.23
2023-02-18T11:53:30.704Z,74.20
2023-02-18T11:56:34.673Z,74.27
2023-02-18T11:59:39.547Z,74.32
2023-02-18T12:02:41.321Z,74.19
2023-02-18T12:05:44.493Z,73.91
2023-02-18T12:08:50.240Z,73.89
2023-02-18T12:11:58.612Z,73.98
2023-02-18T12:15:01.402Z,73.92
2023-02-18T12:18:46.815Z,73.94
2023-02-18T12:22:12.744Z,73.86
2023-02-18T12:25:49.602Z,73.84
2023-02-18T12:28:56.921Z,73.58
2023-02-18T12:32:24.350Z,73.55
2023-02-18T12:35:45.420Z,73.43
2023-02-18T12:39:11.584Z,73.25
2023-02-18T12:42:28.700Z,73.16
2023-02-18T12:46:05.665Z,73.13
2023-02-18T12:49:21.379Z,72.95
2023-02-18T12:52:31.908Z,72.66
2023-02-18T12:56:11.404Z,72.52
2023-02-18T12:59:31.400Z,72.43
2023-02-18T13:03:00.629Z,72.19
2023-02-18T13:06:22.906Z,72.01
2023-02-18T13:09:30.588Z,71.76
2023-02-18T13:12:39.519Z,71.72
2023-02-18T13:15:48.539Z,71.53
2023-02-18T13:19:11.267Z,71.33
2023-02-18T13:22:15.680Z,71.19
2023-02-18T13:25:19.140Z,71.19
2023-02-18T13:28:29.903Z,71.29
2023-02-18T13:31:50.519Z,71.04
2023-02-18T13:34:59.234Z,70.74
2023-02-18T13:38:20.716Z,70.42
2023-02-18T13:41:22.723Z,70.22
2023-02-18T13:44:24.320Z,70.02
2023-02-18T13:47:41.162Z,69.77
2023-02-18T13:50:43.500Z,69.61
2023-02-18T13:53:51.631Z,69.47
2023-02-18T13:57:20.993Z,69.07
2023-02-18T14:00:25.613Z,68.70
2023-02-18T14:03:42.490Z,68.60
2023-02-18T14:07:23.697Z,68.48
2023-02-18T14:10:34.131Z,68.32
2023-02-18T14:13:49.659Z,68.17
2023-02-18T14:17:20.382Z,67.94
2023-02-18T14:20:21.998Z,67.49
2023-02-18T14:23:23.516Z,67.37
2023-02-18T14:26:32.665Z,67.22
2023-02-18T14:29:34.301Z,66.89
2023-02-18T14:32:39.767Z,66.96
2023-02-18T14:35:53.198Z,66.82
2023-02-18T14:39:09.959Z,66.67
2023-02-18T14:42:20.293Z,66.46
2023-02-18T14:45:32.731Z,66.18
2023-02-18T14:48:46.320Z,66.10
2023-02-18T14:51:48.285Z,65.99
2023-02-18T14:54:49.873Z,65.79
2023-02-18T14:57:55.249Z,65.69
2023-02-18T15:00:56.894Z,65.47
2023-02-18T15:03:58.493Z,65.27
2023-02-18T15:07:05.281Z,65.05
2023-02-18T15:10:13.883Z,64.96
2023-02-18T15:13:27.649Z,64.85
2023-02-18T15:16:29.177Z,64.82
2023-02-18T15:19:37.855Z,64.77
2023-02-18T15:22:40.022Z,64.63
2023-02-18T15:25:42.991Z,64.59
2023-02-18T15:28:58.577Z,64.54
2023-02-18T15:32:03.247Z,64.57
2023-02-18T15:35:16.732Z,64.55
2023-02-18T15:38:20.026Z,64.44
2023-02-18T15:41:23.102Z,64.46
2023-02-18T15:44:27.490Z,64.32
2023-02-18T15:47:29.373Z,64.33
2023-02-18T15:50:36.804Z,64.29
2023-02-18T15:53:40.016Z,64.33
2023-02-18T15:56:44.237Z,64.35
2023-02-18T15:59:53.800Z,64.36
2023-02-18T16:03:03.203Z,64.66
2023-02-18T16:06:25.908Z,64.78
2023-02-18T16:09:30.754Z,64.95
2023-02-18T16:12:32.773Z,65.13
2023-02-18T16:15:39.952Z,65.18
2023-02-18T16:18:42.809Z,65.38
2023-02-18T16:21:45.157Z,65.43
2023-02-18T16:24:51.857Z,65.57
2023-02-18T16:28:04.033Z,65.53
2023-02-18T16:31:05.599Z,65.53
2023-02-18T16:34:07.175Z,65.71
2023-02-18T16:37:28.354Z,65.75
2023-02-18T16:40:40.694Z,65.68
2023-02-18T16:43:42.944Z,65.86
2023-02-18T16:46:44.791Z,65.86
2023-02-18T16:49:48.393Z,65.97
2023-02-18T16:52:50.329Z,65.97
2023-02-18T16:55:51.974Z,66.21
2023-02-18T16:59:12.237Z,66.18
2023-02-18T17:02:20.783Z,66.41
2023-02-18T17:05:26.969Z,66.41
2023-02-18T17:08:28.770Z,66.47
2023-02-18T17:11:33.414Z,66.47
2023-02-18T17:14:34.954Z,66.40
2023-02-18T17:17:36.553Z,66.39
2023-02-18T17:20:38.739Z,66.35
2023-02-18T17:23:41.256Z,66.50
2023-02-18T17:26:43.125Z,66.62
2023-02-18T17:29:44.641Z,66.67
2023-02-18T17:32:46.683Z,66.71
2023-02-18T17:35:48.373Z,66.93
2023-02-18T17:38:50.046Z,67.08
2023-02-18T17:41:52.204Z,67.34
2023-02-18T17:44:53.722Z,67.41
2023-02-18T17:47:59.516Z,67.42
2023-02-18T17:51:01.170Z,67.57
2023-02-18T17:54:03.430Z,67.49
2023-02-18T17:57:05.040Z,67.42
2023-02-18T18:00:07.487Z,67.53
2023-02-18T18:03:11.594Z,67.51
2023-02-18T18:06:17.680Z,67.61
2023-02-18T18:09:19.351Z,67.72
2023-02-18T18:12:20.882Z,67.72
2023-02-18T18:15:48.660Z,67.89
2023-02-18T18:18:50.243Z,68.02
2023-02-18T18:21:51.748Z,68.09
2023-02-18T18:24:53.441Z,68.08
2023-02-18T18:27:55.393Z,68.05
2023-02-18T18:30:57.771Z,68.10
2023-02-18T18:33:59.407Z,68.26
2023-02-18T18:37:00.984Z,68.25
2023-02-18T18:40:02.563Z,68.43
2023-02-18T18:43:04.552Z,68.56
2023-02-18T18:46:06.607Z,68.47
2023-02-18T18:49:08.208Z,68.67
2023-02-18T18:52:15.529Z,68.76
2023-02-18T18:55:25.023Z,68.91
2023-02-18T18:58:26.682Z,69.02
2023-02-18T19:01:29.280Z,69.14
2023-02-18T19:04:30.979Z,69.09
2023-02-18T19:07:32.518Z,69.12
2023-02-18T19:10:37.346Z,69.12
2023-02-18T19:13:39.381Z,69.06
2023-02-18T19:16:42.839Z,69.29
2023-02-18T19:19:44.552Z,69.27
2023-02-18T19:22:46.649Z,69.54
2023-02-18T19:25:48.289Z,69.82
2023-02-18T19:28:49.812Z,69.88
2023-02-18T19:31:51.440Z,70.01
2023-02-18T19:34:52.976Z,70.05
2023-02-18T19:37:54.786Z,69.96
2023-02-18T19:40:56.726Z,69.90
2023-02-18T19:43:58.361Z,69.96
2023-02-18T19:47:01.014Z,69.91
2023-02-18T19:50:03.419Z,70.00
2023-02-18T19:53:04.948Z,70.01
2023-02-18T19:56:07.538Z,70.18
2023-02-18T19:59:09.179Z,70.37
2023-02-18T20:02:19.628Z,70.53
2023-02-18T20:05:21.420Z,70.63
2023-02-18T20:08:22.946Z,70.55
2023-02-18T20:11:24.593Z,70.57
2023-02-18T20:14:27.188Z,70.64
2023-02-18T20:17:28.748Z,70.68
2023-02-18T20:20:30.387Z,70.61
2023-02-18T20:23:31.937Z,70.67
2023-02-18T20:26:33.588Z,70.66
2023-02-18T20:29:36.292Z,70.71
2023-02-18T20:32:38.411Z,70.70
2023-02-18T20:35:39.973Z,70.65
2023-02-18T20:38:41.783Z,70.87
2023-02-18T20:41:44.617Z,70.94
2023-02-18T20:44:46.621Z,71.01
2023-02-18T20:47:48.176Z,71.23
2023-02-18T20:50:49.748Z,71.28
2023-02-18T20:53:51.747Z,71.42
2023-02-18T20:56:53.312Z,71.46
2023-02-18T20:59:55.132Z,71.39
2023-02-18T21:02:56.700Z,71.50
2023-02-18T21:06:01.440Z,71.41
2023-02-18T21:09:03.363Z,71.41
2023-02-18T21:12:05.258Z,71.41
2023-02-18T21:15:07.088Z,71.28
2023-02-18T21:18:08.596Z,71.39
2023-02-18T21:21:11.163Z,71.44
2023-02-18T21:24:13.165Z,71.39
2023-02-18T21:27:14.812Z,71.51
2023-02-18T21:30:16.506Z,71.58
2023-02-18T21:33:18.084Z,71.64
2023-02-18T21:36:20.495Z,71.60
2023-02-18T21:39:22.084Z,71.66
2023-02-18T21:42:23.653Z,71.63
2023-02-18T21:45:27.504Z,71.63
2023-02-18T21:48:47.789Z,71.70
2023-02-18T21:52:08.289Z,71.74
2023-02-18T21:55:12.387Z,71.98
2023-02-18T21:58:13.951Z,72.10
2023-02-18T22:01:15.564Z,72.18
2023-02-18T22:04:17.218Z,72.23
2023-02-18T22:07:20.621Z,72.23
2023-02-18T22:10:22.250Z,72.36
2023-02-18T22:13:23.804Z,72.13
2023-02-18T22:16:28.197Z,72.19
2023-02-18T22:19:29.973Z,72.13
2023-02-18T22:22:32.244Z,72.16
2023-02-18T22:25:35.320Z,72.23
2023-02-18T22:28:37.378Z,72.18
2023-02-18T22:31:39.210Z,72.23
2023-02-18T22:34:40.847Z,72.35
2023-02-18T22:37:42.350Z,72.47
2023-02-18T22:40:43.867Z,72.44
2023-02-18T22:43:46.013Z,72.48
2023-02-18T22:46:47.601Z,72.62
2023-02-18T22:49:49.178Z,72.79
2023-02-18T22:52:50.713Z,72.73
2023-02-18T22:55:52.294Z,72.73
2023-02-18T22:58:55.666Z,72.65
2023-02-18T23:01:57.405Z,72.70
2023-02-18T23:04:58.917Z,72.76
2023-02-18T23:08:00.438Z,72.84
2023-02-18T23:11:03.320Z,73.07
2023-02-18T23:14:19.872Z,73.21
2023-02-18T23:17:24.392Z,73.05
2023-02-18T23:20:46.171Z,72.89
2023-02-18T23:23:53.070Z,72.79
2023-02-18T23:26:54.683Z,72.75
2023-02-18T23:29:56.558Z,72.81
2023-02-18T23:32:58.142Z,72.90
2023-02-18T23:36:08.674Z,72.92
2023-02-18T23:39:13.515Z,73.10
2023-02-18T23:42:24.363Z,73.19
2023-02-18T23:45:26.068Z,73.33
2023-02-18T23:48:27.585Z,73.43
2023-02-18T23:51:32.457Z,73.44
2023-02-18T23:54:34.286Z,73.38
2023-02-18T23:57:36.523Z,73.36
